createdAt,value
2019-04-06T00:00:15.163Z,8.33
2019-04-06T00:00:46.450Z,8.40
2019-04-06T00:01:17.650Z,8.38
2019-04-06T00:01:48.851Z,8.35
2019-04-06T00:02:20.108Z,8.29
2019-04-06T00:02:51.344Z,8.26
2019-04-06T00:03:22.569Z,8.20
2019-04-06T00:03:53.870Z,8.15
2019-04-06T00:04:25.147Z,8.09
2019-04-06T00:04:56.479Z,8.05
2019-04-06T00:05:27.718Z,8.00
2019-04-06T00:05:59.007Z,7.98
2019-04-06T00:06:30.314Z,7.98
2019-04-06T00:07:01.588Z,7.94
2019-04-06T00:07:32.913Z,7.95
2019-04-06T00:08:04.178Z,7.98
2019-04-06T00:08:35.381Z,7.93
2019-04-06T00:09:06.660Z,7.93
2019-04-06T00:09:37.922Z,7.90
2019-04-06T00:10:09.168Z,7.82
2019-04-06T00:10:40.422Z,7.82
2019-04-06T00:11:11.656Z,7.80
2019-04-06T00:11:42.855Z,7.81
2019-04-06T00:12:14.096Z,7.80
2019-04-06T00:12:45.341Z,7.80
2019-04-06T00:13:16.573Z,7.81
2019-04-06T00:13:47.817Z,7.78
2019-04-06T00:14:19.125Z,7.78
2019-04-06T00:14:50.429Z,7.76
2019-04-06T00:15:21.685Z,7.78
2019-04-06T00:15:52.889Z,7.84
2019-04-06T00:16:24.158Z,7.94
2019-04-06T00:16:55.441Z,7.98
2019-04-06T00:17:28.722Z,8.04
2019-04-06T00:18:00.833Z,8.04
2019-04-06T00:18:32.119Z,8.01
2019-04-06T00:19:03.415Z,7.99
2019-04-06T00:19:34.668Z,7.93
2019-04-06T00:20:05.888Z,7.87
2019-04-06T00:20:37.094Z,7.83
2019-04-06T00:21:08.371Z,7.82
2019-04-06T00:21:39.671Z,7.78
2019-04-06T00:22:11.889Z,7.80
2019-04-06T00:22:43.071Z,7.77
2019-04-06T00:23:14.288Z,7.73
2019-04-06T00:23:48.335Z,7.71
2019-04-06T00:24:19.576Z,7.77
2019-04-06T00:24:50.876Z,7.78
2019-04-06T00:25:22.132Z,7.75
2019-04-06T00:25:55.767Z,7.76
2019-04-06T00:26:27.053Z,7.74
2019-04-06T00:26:58.327Z,7.73
2019-04-06T00:27:29.550Z,7.73
2019-04-06T00:28:00.868Z,7.70
2019-04-06T00:28:32.179Z,7.71
2019-04-06T00:29:03.409Z,7.66
2019-04-06T00:29:34.684Z,7.65
2019-04-06T00:30:05.998Z,7.69
2019-04-06T00:30:37.259Z,7.72
2019-04-06T00:31:08.555Z,7.71
2019-04-06T00:31:39.855Z,7.73
2019-04-06T00:32:11.238Z,7.82
2019-04-06T00:32:45.165Z,7.85
2019-04-06T00:33:16.398Z,7.87
2019-04-06T00:33:47.694Z,7.87
2019-04-06T00:34:21.745Z,7.83
2019-04-06T00:34:53.056Z,7.79
2019-04-06T00:35:24.356Z,7.79
2019-04-06T00:35:55.697Z,7.78
2019-04-06T00:36:29.843Z,7.75
2019-04-06T00:37:01.084Z,7.71
2019-04-06T00:37:32.337Z,7.70
2019-04-06T00:38:03.657Z,7.72
2019-04-06T00:38:34.944Z,7.74
2019-04-06T00:39:06.157Z,7.75
2019-04-06T00:39:37.400Z,7.77
2019-04-06T00:40:08.591Z,7.81
2019-04-06T00:40:39.889Z,7.84
2019-04-06T00:41:11.180Z,7.82
2019-04-06T00:41:42.420Z,7.77
2019-04-06T00:42:13.659Z,7.78
2019-04-06T00:42:44.893Z,7.79
2019-04-06T00:43:16.133Z,7.79
2019-04-06T00:43:47.430Z,7.77
2019-04-06T00:44:18.809Z,7.77
2019-04-06T00:44:50.185Z,7.71
2019-04-06T00:45:21.463Z,7.67
2019-04-06T00:45:52.833Z,7.83
2019-04-06T00:46:24.126Z,7.88
2019-04-06T00:46:55.356Z,7.86
2019-04-06T00:47:26.654Z,7.85
2019-04-06T00:47:57.934Z,7.86
2019-04-06T00:48:29.192Z,7.84
2019-04-06T00:49:00.432Z,7.80
2019-04-06T00:49:31.699Z,7.78
2019-04-06T00:50:02.888Z,7.78
2019-04-06T00:50:34.532Z,7.78
2019-04-06T00:51:05.771Z,7.76
2019-04-06T00:51:37.001Z,7.86
2019-04-06T00:52:08.224Z,7.92
2019-04-06T00:52:39.461Z,7.91
2019-04-06T00:53:13.732Z,7.97
2019-04-06T00:53:44.969Z,8.04
2019-04-06T00:54:17.129Z,8.09
2019-04-06T00:54:48.616Z,8.10
2019-04-06T00:55:19.911Z,8.07
2019-04-06T00:55:55.969Z,8.02
2019-04-06T00:56:24.051Z,7.97
2019-04-06T00:56:55.338Z,7.93
2019-04-06T00:57:26.597Z,7.85
2019-04-06T00:57:57.954Z,7.89
2019-04-06T00:58:29.229Z,7.95
2019-04-06T00:59:03.304Z,7.96
2019-04-06T00:59:34.722Z,7.96
2019-04-06T01:00:06.061Z,7.94
2019-04-06T01:00:37.306Z,7.85
2019-04-06T01:01:10.891Z,7.85
2019-04-06T01:01:43.045Z,7.86
2019-04-06T01:02:14.332Z,7.89
2019-04-06T01:02:45.550Z,7.88
2019-04-06T01:03:16.804Z,7.85
2019-04-06T01:03:48.079Z,7.81
2019-04-06T01:04:19.293Z,7.84
2019-04-06T01:04:50.540Z,7.86
2019-04-06T01:05:21.811Z,7.83
2019-04-06T01:05:53.173Z,7.85
2019-04-06T01:06:24.434Z,7.90
2019-04-06T01:06:55.649Z,7.96
2019-04-06T01:07:26.862Z,8.09
2019-04-06T01:07:58.181Z,8.21
2019-04-06T01:08:29.365Z,8.25
2019-04-06T01:09:00.655Z,8.21
2019-04-06T01:09:31.893Z,8.18
2019-04-06T01:10:03.159Z,8.09
2019-04-06T01:10:34.544Z,8.06
2019-04-06T01:11:05.789Z,8.01
2019-04-06T01:11:37.144Z,7.94
2019-04-06T01:12:08.402Z,7.85
2019-04-06T01:12:39.675Z,7.83
2019-04-06T01:13:13.226Z,7.78
2019-04-06T01:13:44.533Z,7.91
2019-04-06T01:14:15.951Z,7.99
2019-04-06T01:14:47.179Z,7.96
2019-04-06T01:15:18.446Z,7.94
2019-04-06T01:15:49.776Z,7.86
2019-04-06T01:16:21.037Z,7.84
2019-04-06T01:16:52.257Z,7.84
2019-04-06T01:17:23.541Z,7.91
2019-04-06T01:17:54.742Z,7.93
2019-04-06T01:18:26.041Z,7.96
2019-04-06T01:18:57.361Z,8.01
2019-04-06T01:19:28.824Z,8.00
2019-04-06T01:20:00.252Z,7.95
2019-04-06T01:20:33.294Z,7.89
2019-04-06T01:21:04.596Z,7.82
2019-04-06T01:21:35.900Z,7.78
2019-04-06T01:22:07.139Z,7.73
2019-04-06T01:22:38.452Z,7.72
2019-04-06T01:23:09.630Z,7.71
2019-04-06T01:23:40.867Z,7.67
2019-04-06T01:24:12.153Z,7.63
2019-04-06T01:24:43.373Z,7.60
2019-04-06T01:25:14.628Z,7.62
2019-04-06T01:25:47.862Z,7.65
2019-04-06T01:26:19.179Z,7.71
2019-04-06T01:26:50.399Z,7.71
2019-04-06T01:27:21.703Z,7.65
2019-04-06T01:27:52.941Z,7.72
2019-04-06T01:28:24.184Z,7.80
2019-04-06T01:28:55.472Z,7.82
2019-04-06T01:29:26.809Z,7.81
2019-04-06T01:29:58.068Z,7.87
2019-04-06T01:30:29.420Z,7.93
2019-04-06T01:31:00.770Z,7.99
2019-04-06T01:31:32.012Z,7.91
2019-04-06T01:32:03.311Z,7.85
2019-04-06T01:32:34.703Z,7.80
2019-04-06T01:33:06.007Z,7.74
2019-04-06T01:33:37.297Z,7.72
2019-04-06T01:34:08.558Z,7.69
2019-04-06T01:34:39.931Z,7.65
2019-04-06T01:35:13.015Z,7.63
2019-04-06T01:35:44.307Z,7.58
2019-04-06T01:36:15.625Z,7.64
2019-04-06T01:36:46.965Z,7.62
2019-04-06T01:37:18.291Z,7.61
2019-04-06T01:37:49.618Z,7.58
2019-04-06T01:38:23.806Z,7.54
2019-04-06T01:38:56.268Z,7.50
2019-04-06T01:39:27.565Z,7.44
2019-04-06T01:40:01.661Z,7.46
2019-04-06T01:40:32.942Z,7.40
2019-04-06T01:41:04.234Z,7.38
2019-04-06T01:41:35.526Z,7.40
2019-04-06T01:42:06.842Z,7.41
2019-04-06T01:42:38.149Z,7.39
2019-04-06T01:43:09.390Z,7.40
2019-04-06T01:43:40.724Z,7.43
2019-04-06T01:44:11.996Z,7.43
2019-04-06T01:44:43.249Z,7.39
2019-04-06T01:45:14.590Z,7.44
2019-04-06T01:45:45.804Z,7.53
2019-04-06T01:46:18.421Z,7.60
2019-04-06T01:46:49.688Z,7.60
2019-04-06T01:47:21.007Z,7.58
2019-04-06T01:47:55.015Z,7.58
2019-04-06T01:48:26.367Z,7.54
2019-04-06T01:48:57.605Z,7.50
2019-04-06T01:49:28.888Z,7.50
2019-04-06T01:50:00.200Z,7.49
2019-04-06T01:50:31.441Z,7.47
2019-04-06T01:51:02.671Z,7.42
2019-04-06T01:51:33.898Z,7.41
2019-04-06T01:52:05.136Z,7.46
2019-04-06T01:52:39.453Z,7.48
2019-04-06T01:53:10.810Z,7.59
2019-04-06T01:53:42.101Z,7.71
2019-04-06T01:54:13.344Z,7.75
2019-04-06T01:54:44.647Z,7.82
2019-04-06T01:55:16.600Z,7.78
2019-04-06T01:55:48.091Z,7.77
2019-04-06T01:56:19.786Z,7.79
2019-04-06T01:56:51.075Z,7.88
2019-04-06T01:57:22.335Z,7.87
2019-04-06T01:57:53.541Z,7.90
2019-04-06T01:58:24.757Z,7.88
2019-04-06T01:58:56.178Z,7.86
2019-04-06T01:59:27.487Z,7.95
2019-04-06T01:59:58.727Z,8.05
2019-04-06T02:00:29.975Z,8.04
2019-04-06T02:01:01.258Z,8.03
2019-04-06T02:01:32.517Z,8.03
2019-04-06T02:02:03.802Z,8.04
2019-04-06T02:02:35.046Z,8.03
2019-04-06T02:03:06.283Z,8.04
2019-04-06T02:03:37.587Z,8.04
2019-04-06T02:04:08.901Z,8.04
2019-04-06T02:04:40.298Z,8.01
2019-04-06T02:05:11.480Z,8.00
2019-04-06T02:05:42.713Z,7.99
2019-04-06T02:06:13.995Z,7.98
2019-04-06T02:06:45.393Z,7.98
2019-04-06T02:07:16.706Z,7.98
2019-04-06T02:07:47.994Z,8.02
2019-04-06T02:08:19.230Z,8.08
2019-04-06T02:08:50.513Z,8.11
2019-04-06T02:09:21.872Z,8.07
2019-04-06T02:09:53.110Z,8.03
2019-04-06T02:10:24.322Z,7.99
2019-04-06T02:10:55.617Z,7.96
2019-04-06T02:11:26.923Z,8.00
2019-04-06T02:11:58.136Z,8.14
2019-04-06T02:12:29.436Z,8.22
2019-04-06T02:13:00.687Z,8.35
2019-04-06T02:13:32.055Z,8.45
2019-04-06T02:14:03.368Z,8.49
2019-04-06T02:14:34.630Z,8.53
2019-04-06T02:15:05.879Z,8.59
2019-04-06T02:15:37.179Z,8.66
2019-04-06T02:16:08.456Z,8.78
2019-04-06T02:16:39.748Z,8.86
2019-04-06T02:17:10.967Z,8.96
2019-04-06T02:17:42.213Z,9.06
2019-04-06T02:18:13.520Z,9.08
2019-04-06T02:18:44.730Z,9.04
2019-04-06T02:19:16.000Z,9.00
2019-04-06T02:19:47.272Z,8.89
2019-04-06T02:20:18.525Z,8.85
2019-04-06T02:20:49.823Z,8.87
2019-04-06T02:21:21.035Z,8.83
2019-04-06T02:21:52.284Z,8.89
2019-04-06T02:22:23.587Z,8.99
2019-04-06T02:22:54.786Z,9.03
2019-04-06T02:23:26.036Z,9.04
2019-04-06T02:23:57.339Z,8.99
2019-04-06T02:24:28.668Z,8.98
2019-04-06T02:24:59.976Z,8.91
2019-04-06T02:25:31.287Z,8.88
2019-04-06T02:26:02.659Z,8.91
2019-04-06T02:26:35.143Z,8.92
2019-04-06T02:27:06.408Z,8.87
2019-04-06T02:27:40.700Z,8.82
2019-04-06T02:28:11.967Z,8.78
2019-04-06T02:28:43.190Z,8.68
2019-04-06T02:29:14.379Z,8.69
2019-04-06T02:29:45.661Z,8.79
2019-04-06T02:30:16.973Z,8.88
2019-04-06T02:30:48.266Z,8.93
2019-04-06T02:31:19.473Z,9.06
2019-04-06T02:31:50.680Z,9.08
2019-04-06T02:32:21.951Z,9.12
2019-04-06T02:32:53.220Z,9.16
2019-04-06T02:33:24.621Z,9.20
2019-04-06T02:33:56.099Z,9.25
2019-04-06T02:34:27.337Z,9.28
2019-04-06T02:34:58.590Z,9.32
2019-04-06T02:35:29.863Z,9.32
2019-04-06T02:36:01.201Z,9.30
2019-04-06T02:36:32.548Z,9.26
2019-04-06T02:37:03.813Z,9.20
2019-04-06T02:37:35.045Z,9.09
2019-04-06T02:38:06.478Z,9.08
2019-04-06T02:38:37.804Z,9.07
2019-04-06T02:39:09.101Z,9.13
2019-04-06T02:39:42.123Z,9.16
2019-04-06T02:40:13.495Z,9.21
2019-04-06T02:40:44.788Z,9.32
2019-04-06T02:41:16.086Z,9.38
2019-04-06T02:41:47.348Z,9.44
2019-04-06T02:42:18.637Z,9.39
2019-04-06T02:42:49.876Z,9.32
2019-04-06T02:43:21.191Z,9.31
2019-04-06T02:43:52.658Z,9.26
2019-04-06T02:44:25.022Z,9.26
2019-04-06T02:44:56.307Z,9.27
2019-04-06T02:45:27.593Z,9.27
2019-04-06T02:45:58.799Z,9.33
2019-04-06T02:46:31.148Z,9.40
2019-04-06T02:47:02.638Z,9.38
2019-04-06T02:47:33.925Z,9.35
2019-04-06T02:48:05.229Z,9.32
2019-04-06T02:48:36.551Z,9.30
2019-04-06T02:49:08.057Z,9.34
2019-04-06T02:49:39.375Z,9.41
2019-04-06T02:50:10.629Z,9.43
2019-04-06T02:50:41.918Z,9.42
2019-04-06T02:51:13.306Z,9.39
2019-04-06T02:51:44.664Z,9.41
2019-04-06T02:52:15.933Z,9.31
2019-04-06T02:52:47.154Z,9.24
2019-04-06T02:53:18.452Z,9.18
2019-04-06T02:53:51.734Z,9.24
2019-04-06T02:54:22.645Z,9.30
2019-04-06T02:54:53.935Z,9.37
2019-04-06T02:55:25.198Z,9.42
2019-04-06T02:55:56.440Z,9.44
2019-04-06T02:56:27.765Z,9.47
2019-04-06T02:56:59.027Z,9.45
2019-04-06T02:57:30.681Z,9.47
2019-04-06T02:58:01.946Z,9.51
2019-04-06T02:58:33.179Z,9.52
2019-04-06T02:59:04.660Z,9.51
2019-04-06T02:59:35.954Z,9.48
2019-04-06T03:00:07.204Z,9.44
2019-04-06T03:00:38.568Z,9.42
2019-04-06T03:01:09.824Z,9.39
2019-04-06T03:01:41.061Z,9.35
2019-04-06T03:02:12.368Z,9.29
2019-04-06T03:02:43.676Z,9.17
2019-04-06T03:03:14.946Z,9.06
2019-04-06T03:03:46.198Z,9.06
2019-04-06T03:04:17.563Z,9.10
2019-04-06T03:04:48.947Z,9.13
2019-04-06T03:05:20.204Z,9.16
2019-04-06T03:05:51.452Z,9.13
2019-04-06T03:06:22.753Z,9.13
2019-04-06T03:06:54.038Z,9.10
2019-04-06T03:07:25.431Z,9.08
2019-04-06T03:07:56.704Z,9.11
2019-04-06T03:08:27.997Z,9.09
2019-04-06T03:08:59.185Z,9.07
2019-04-06T03:09:30.441Z,8.99
2019-04-06T03:10:02.961Z,8.93
2019-04-06T03:10:34.204Z,8.90
2019-04-06T03:11:05.481Z,8.87
2019-04-06T03:11:39.467Z,8.79
2019-04-06T03:12:10.751Z,8.77
2019-04-06T03:12:42.026Z,8.74
2019-04-06T03:13:13.303Z,8.75
2019-04-06T03:13:44.689Z,8.81
2019-04-06T03:14:15.904Z,8.87
2019-04-06T03:14:47.137Z,8.87
2019-04-06T03:15:20.092Z,8.86
2019-04-06T03:15:51.364Z,8.80
2019-04-06T03:16:22.646Z,8.76
2019-04-06T03:16:56.596Z,8.66
2019-04-06T03:17:27.925Z,8.59
2019-04-06T03:17:59.286Z,8.58
2019-04-06T03:18:30.627Z,8.64
2019-04-06T03:19:02.832Z,8.77
2019-04-06T03:19:34.127Z,8.89
2019-04-06T03:20:05.375Z,8.97
2019-04-06T03:20:36.703Z,8.96
2019-04-06T03:21:07.975Z,8.92
2019-04-06T03:21:39.242Z,8.94
2019-04-06T03:22:10.515Z,8.96
2019-04-06T03:22:41.869Z,8.98
2019-04-06T03:23:13.121Z,9.01
2019-04-06T03:23:51.240Z,9.01
2019-04-06T03:24:17.419Z,8.98
2019-04-06T03:24:48.724Z,8.96
2019-04-06T03:25:20.153Z,8.93
2019-04-06T03:25:51.441Z,8.91
2019-04-06T03:26:22.743Z,8.89
2019-04-06T03:27:01.961Z,8.84
2019-04-06T03:27:26.895Z,8.80
2019-04-06T03:27:58.303Z,8.77
2019-04-06T03:28:29.575Z,8.72
2019-04-06T03:29:00.885Z,8.68
2019-04-06T03:29:32.097Z,8.66
2019-04-06T03:30:03.614Z,8.74
2019-04-06T03:30:34.881Z,8.83
2019-04-06T03:31:06.166Z,9.01
2019-04-06T03:31:37.359Z,9.05
2019-04-06T03:32:08.693Z,9.05
2019-04-06T03:32:40.351Z,9.11
2019-04-06T03:33:11.738Z,9.19
2019-04-06T03:33:43.213Z,9.36
2019-04-06T03:34:20.003Z,9.37
2019-04-06T03:34:47.668Z,9.30
2019-04-06T03:35:21.252Z,9.25
2019-04-06T03:35:52.685Z,9.21
2019-04-06T03:36:24.168Z,9.06
2019-04-06T03:36:55.444Z,9.02
2019-04-06T03:37:26.670Z,8.97
2019-04-06T03:37:57.888Z,8.98
2019-04-06T03:38:29.340Z,9.03
2019-04-06T03:39:00.668Z,9.09
2019-04-06T03:39:31.931Z,9.15
2019-04-06T03:40:03.198Z,9.20
2019-04-06T03:40:34.540Z,9.15
2019-04-06T03:41:05.801Z,9.15
2019-04-06T03:41:37.066Z,9.15
2019-04-06T03:42:10.636Z,9.17
2019-04-06T03:42:41.415Z,9.21
2019-04-06T03:43:12.651Z,9.17
2019-04-06T03:43:43.895Z,9.13
2019-04-06T03:44:15.290Z,9.08
2019-04-06T03:44:46.461Z,9.05
2019-04-06T03:45:17.721Z,9.02
2019-04-06T03:45:48.955Z,8.97
2019-04-06T03:46:20.348Z,8.87
2019-04-06T03:46:51.611Z,8.89
2019-04-06T03:47:22.855Z,8.91
2019-04-06T03:47:54.087Z,8.86
2019-04-06T03:48:28.163Z,8.83
2019-04-06T03:48:59.768Z,8.78
2019-04-06T03:49:31.087Z,8.85
2019-04-06T03:50:02.412Z,8.84
2019-04-06T03:50:33.636Z,8.82
2019-04-06T03:51:04.937Z,8.91
2019-04-06T03:51:36.321Z,9.01
2019-04-06T03:52:07.570Z,9.16
2019-04-06T03:52:38.834Z,9.23
2019-04-06T03:53:10.184Z,9.29
2019-04-06T03:53:41.425Z,9.32
2019-04-06T03:54:12.721Z,9.30
2019-04-06T03:54:44.045Z,9.24
2019-04-06T03:55:15.301Z,9.26
2019-04-06T03:55:49.527Z,9.34
2019-04-06T03:56:21.070Z,9.44
2019-04-06T03:56:52.329Z,9.49
2019-04-06T03:57:23.552Z,9.50
2019-04-06T03:57:54.811Z,9.46
2019-04-06T03:58:26.155Z,9.38
2019-04-06T03:58:57.543Z,9.26
2019-04-06T03:59:28.935Z,9.17
2019-04-06T04:00:00.193Z,9.07
2019-04-06T04:00:31.572Z,9.00
2019-04-06T04:01:02.950Z,9.01
2019-04-06T04:01:34.315Z,9.06
2019-04-06T04:02:05.658Z,9.09
2019-04-06T04:02:36.960Z,9.18
2019-04-06T04:03:08.392Z,9.24
2019-04-06T04:03:39.677Z,9.26
2019-04-06T04:04:11.033Z,9.25
2019-04-06T04:04:42.372Z,9.18
2019-04-06T04:05:13.695Z,9.16
2019-04-06T04:05:44.949Z,9.19
2019-04-06T04:06:16.210Z,9.29
2019-04-06T04:06:47.468Z,9.38
2019-04-06T04:07:19.088Z,9.45
2019-04-06T04:07:53.365Z,9.50
2019-04-06T04:08:24.767Z,9.48
2019-04-06T04:08:56.067Z,9.50
2019-04-06T04:09:27.319Z,9.53
2019-04-06T04:09:58.658Z,9.61
2019-04-06T04:10:29.998Z,9.74
2019-04-06T04:11:01.561Z,9.82
2019-04-06T04:11:33.231Z,9.88
2019-04-06T04:12:04.483Z,9.81
2019-04-06T04:12:35.845Z,9.79
2019-04-06T04:13:07.144Z,9.79
2019-04-06T04:13:38.781Z,9.78
2019-04-06T04:14:11.278Z,9.81
2019-04-06T04:14:42.587Z,9.77
2019-04-06T04:15:15.126Z,9.75
2019-04-06T04:15:46.453Z,9.67
2019-04-06T04:16:17.843Z,9.68
2019-04-06T04:16:49.119Z,9.63
2019-04-06T04:17:20.517Z,9.58
2019-04-06T04:17:51.813Z,9.53
2019-04-06T04:18:23.118Z,9.48
2019-04-06T04:18:57.124Z,9.47
2019-04-06T04:19:28.561Z,9.45
2019-04-06T04:19:59.943Z,9.47
2019-04-06T04:20:31.249Z,9.45
2019-04-06T04:21:02.587Z,9.37
2019-04-06T04:21:33.933Z,9.35
2019-04-06T04:22:05.205Z,9.33
2019-04-06T04:22:36.572Z,9.28
2019-04-06T04:23:07.911Z,9.20
2019-04-06T04:23:39.234Z,9.12
2019-04-06T04:24:10.509Z,9.09
2019-04-06T04:24:41.798Z,9.14
2019-04-06T04:25:13.061Z,9.21
2019-04-06T04:25:44.505Z,9.31
2019-04-06T04:26:15.901Z,9.33
2019-04-06T04:26:47.179Z,9.34
2019-04-06T04:27:28.287Z,9.43
2019-04-06T04:27:51.425Z,9.45
2019-04-06T04:28:22.815Z,9.44
2019-04-06T04:28:56.204Z,9.44
2019-04-06T04:29:27.178Z,9.44
2019-04-06T04:29:58.537Z,9.41
2019-04-06T04:30:33.388Z,9.37
2019-04-06T04:31:03.094Z,9.34
2019-04-06T04:31:34.457Z,9.33
2019-04-06T04:32:05.698Z,9.34
2019-04-06T04:32:36.975Z,9.38
2019-04-06T04:33:08.257Z,9.47
2019-04-06T04:33:39.564Z,9.57
2019-04-06T04:34:10.890Z,9.63
2019-04-06T04:34:42.195Z,9.61
2019-04-06T04:35:13.472Z,9.57
2019-04-06T04:35:44.733Z,9.55
2019-04-06T04:36:16.054Z,9.51
2019-04-06T04:36:47.350Z,9.40
2019-04-06T04:37:20.702Z,9.35
2019-04-06T04:37:52.011Z,9.30
2019-04-06T04:38:23.329Z,9.27
2019-04-06T04:38:54.721Z,9.21
2019-04-06T04:39:26.065Z,9.21
2019-04-06T04:39:57.317Z,9.13
2019-04-06T04:40:31.112Z,9.15
2019-04-06T04:41:02.418Z,9.13
2019-04-06T04:41:33.929Z,9.12
2019-04-06T04:42:05.234Z,9.14
2019-04-06T04:42:36.634Z,9.11
2019-04-06T04:43:07.945Z,9.04
2019-04-06T04:43:39.246Z,8.98
2019-04-06T04:44:10.597Z,8.95
2019-04-06T04:44:41.973Z,8.92
2019-04-06T04:45:13.451Z,8.90
2019-04-06T04:45:45.010Z,8.93
2019-04-06T04:46:18.294Z,8.97
2019-04-06T04:46:50.491Z,9.04
2019-04-06T04:47:21.767Z,9.14
2019-04-06T04:47:52.983Z,9.23
2019-04-06T04:48:24.298Z,9.26
2019-04-06T04:48:57.109Z,9.30
2019-04-06T04:49:31.247Z,9.33
2019-04-06T04:50:02.554Z,9.34
2019-04-06T04:50:33.823Z,9.33
2019-04-06T04:51:05.186Z,9.28
2019-04-06T04:51:39.571Z,9.23
2019-04-06T04:52:13.637Z,9.14
2019-04-06T04:52:47.333Z,9.09
2019-04-06T04:53:18.644Z,9.09
2019-04-06T04:53:50.059Z,9.07
2019-04-06T04:54:22.638Z,9.05
2019-04-06T04:54:58.414Z,9.02
2019-04-06T04:55:29.733Z,9.00
2019-04-06T04:56:02.811Z,9.00
2019-04-06T04:56:34.207Z,9.03
2019-04-06T04:57:05.523Z,9.01
2019-04-06T04:57:41.261Z,8.99
2019-04-06T04:58:09.845Z,8.99
2019-04-06T04:58:41.173Z,8.94
2019-04-06T04:59:14.443Z,8.92
2019-04-06T04:59:45.731Z,8.90
2019-04-06T05:00:17.009Z,8.90
2019-04-06T05:00:48.351Z,8.95
2019-04-06T05:01:19.660Z,9.01
2019-04-06T05:01:52.894Z,9.08
2019-04-06T05:02:26.260Z,9.10
2019-04-06T05:02:57.565Z,9.06
2019-04-06T05:03:28.912Z,9.09
2019-04-06T05:04:00.245Z,9.13
2019-04-06T05:04:31.496Z,9.17
2019-04-06T05:05:02.771Z,9.22
2019-04-06T05:05:34.160Z,9.17
2019-04-06T05:06:05.457Z,9.17
2019-04-06T05:06:36.788Z,9.18
2019-04-06T05:07:08.058Z,9.15
2019-04-06T05:07:39.449Z,9.17
2019-04-06T05:08:10.686Z,9.13
2019-04-06T05:08:41.991Z,9.17
2019-04-06T05:09:13.230Z,9.22
2019-04-06T05:09:44.708Z,9.22
2019-04-06T05:10:16.067Z,9.24
2019-04-06T05:10:47.365Z,9.28
2019-04-06T05:11:19.676Z,9.27
2019-04-06T05:11:52.769Z,9.30
2019-04-06T05:12:24.000Z,9.25
2019-04-06T05:12:55.266Z,9.22
2019-04-06T05:13:26.506Z,9.18
2019-04-06T05:14:00.812Z,9.15
2019-04-06T05:14:34.259Z,9.15
2019-04-06T05:15:09.482Z,9.14
2019-04-06T05:15:40.703Z,9.14
2019-04-06T05:16:12.159Z,9.13
2019-04-06T05:16:49.318Z,9.08
2019-04-06T05:17:20.527Z,9.08
2019-04-06T05:17:51.835Z,9.10
2019-04-06T05:18:23.145Z,9.09
2019-04-06T05:18:56.919Z,9.13
2019-04-06T05:19:43.042Z,9.27
2019-04-06T05:20:14.325Z,9.45
2019-04-06T05:20:45.592Z,9.63
2019-04-06T05:21:19.268Z,9.68
2019-04-06T05:21:50.575Z,9.74
2019-04-06T05:22:21.789Z,9.80
2019-04-06T05:22:56.449Z,9.86
2019-04-06T05:23:27.786Z,9.90
2019-04-06T05:24:04.177Z,9.94
2019-04-06T05:24:35.027Z,9.98
2019-04-06T05:25:08.188Z,10.06
2019-04-06T05:25:39.515Z,10.18
2019-04-06T05:26:12.810Z,10.24
2019-04-06T05:26:46.890Z,10.26
2019-04-06T05:27:18.246Z,10.27
2019-04-06T05:27:52.714Z,10.23
2019-04-06T05:28:22.479Z,10.11
2019-04-06T05:28:53.751Z,10.20
2019-04-06T05:29:25.013Z,10.24
2019-04-06T05:29:56.491Z,10.28
2019-04-06T05:30:27.750Z,10.25
2019-04-06T05:31:07.768Z,10.21
2019-04-06T05:31:39.337Z,10.21
2019-04-06T05:32:10.619Z,10.18
2019-04-06T05:32:44.259Z,10.18
2019-04-06T05:33:15.527Z,10.20
2019-04-06T05:33:46.775Z,10.21
2019-04-06T05:34:18.012Z,10.30
2019-04-06T05:34:49.285Z,10.37
2019-04-06T05:35:20.647Z,10.41
2019-04-06T05:35:51.944Z,10.40
2019-04-06T05:36:23.329Z,10.39
2019-04-06T05:36:54.751Z,10.36
2019-04-06T05:37:26.024Z,10.35
2019-04-06T05:37:57.442Z,10.32
2019-04-06T05:38:28.793Z,10.26
2019-04-06T05:39:00.069Z,10.23
2019-04-06T05:39:31.468Z,10.20
2019-04-06T05:40:02.725Z,10.19
2019-04-06T05:40:34.017Z,10.18
2019-04-06T05:41:05.288Z,10.20
2019-04-06T05:41:36.573Z,10.24
2019-04-06T05:42:07.858Z,10.26
2019-04-06T05:42:40.797Z,10.26
2019-04-06T05:43:12.076Z,10.21
2019-04-06T05:43:43.363Z,10.12
2019-04-06T05:44:14.622Z,10.03
2019-04-06T05:44:45.909Z,9.98
2019-04-06T05:45:17.197Z,9.95
2019-04-06T05:45:48.445Z,9.92
2019-04-06T05:46:19.725Z,9.89
2019-04-06T05:46:51.022Z,9.92
2019-04-06T05:47:22.365Z,9.93
2019-04-06T05:47:53.652Z,9.97
2019-04-06T05:48:25.029Z,9.97
2019-04-06T05:48:59.208Z,10.02
2019-04-06T05:49:30.692Z,10.11
2019-04-06T05:50:02.053Z,10.18
2019-04-06T05:50:33.421Z,10.25
2019-04-06T05:51:04.861Z,10.29
2019-04-06T05:51:36.124Z,10.37
2019-04-06T05:52:07.453Z,10.32
2019-04-06T05:52:38.712Z,10.37
2019-04-06T05:53:10.178Z,10.42
2019-04-06T05:53:41.407Z,10.49
2019-04-06T05:54:12.679Z,10.57
2019-04-06T05:54:44.076Z,10.63
2019-04-06T05:55:15.421Z,10.65
2019-04-06T05:57:37.253Z,10.67
2019-04-06T05:58:10.608Z,10.71
2019-04-06T05:58:44.351Z,10.77
2019-04-06T05:59:15.324Z,10.74
2019-04-06T05:59:46.520Z,10.68
2019-04-06T06:00:18.184Z,10.65
2019-04-06T06:00:52.051Z,10.63
2019-04-06T06:01:23.321Z,10.65
2019-04-06T06:01:54.663Z,10.67
2019-04-06T06:02:25.894Z,10.64
2019-04-06T06:02:57.119Z,10.63
2019-04-06T06:03:28.322Z,10.61
2019-04-06T06:04:01.003Z,10.59
2019-04-06T06:04:40.275Z,10.54
2019-04-06T06:05:14.034Z,10.48
2019-04-06T06:05:45.423Z,10.51
2019-04-06T06:06:19.298Z,10.54
2019-04-06T06:06:50.508Z,10.58
2019-04-06T06:07:21.771Z,10.59
2019-04-06T06:07:53.036Z,10.63
2019-04-06T06:08:27.370Z,10.67
2019-04-06T06:08:58.660Z,10.78
2019-04-06T06:09:29.898Z,10.88
2019-04-06T06:10:04.172Z,10.95
2019-04-06T06:10:35.474Z,11.01
2019-04-06T06:11:06.705Z,11.06
2019-04-06T06:11:39.968Z,11.08
2019-04-06T06:12:10.942Z,11.10
2019-04-06T06:12:42.253Z,11.07
2019-04-06T06:13:19.454Z,11.03
2019-04-06T06:13:52.714Z,10.94
2019-04-06T06:14:24.033Z,10.90
2019-04-06T06:14:55.326Z,10.90
2019-04-06T06:15:26.610Z,10.90
2019-04-06T06:15:57.822Z,10.79
2019-04-06T06:16:31.921Z,10.76
2019-04-06T06:17:03.300Z,10.75
2019-04-06T06:17:34.568Z,10.71
2019-04-06T06:18:05.811Z,10.70
2019-04-06T06:18:37.117Z,10.70
2019-04-06T06:19:08.486Z,10.71
2019-04-06T06:19:39.763Z,10.72
2019-04-06T06:20:10.962Z,10.71
2019-04-06T06:20:48.239Z,10.72
2019-04-06T06:21:18.064Z,10.73
2019-04-06T06:21:49.431Z,10.76
2019-04-06T06:22:20.717Z,10.78
2019-04-06T06:22:51.936Z,10.84
2019-04-06T06:23:23.198Z,10.87
2019-04-06T06:23:54.457Z,10.85
2019-04-06T06:24:25.784Z,10.79
2019-04-06T06:24:58.345Z,10.73
2019-04-06T06:25:31.254Z,10.73
2019-04-06T06:26:02.592Z,10.74
2019-04-06T06:26:33.921Z,10.68
2019-04-06T06:27:05.450Z,10.66
2019-04-06T06:27:37.755Z,10.71
2019-04-06T06:28:14.169Z,10.79
2019-04-06T06:28:43.397Z,10.83
2019-04-06T06:29:14.689Z,10.88
2019-04-06T06:29:52.630Z,10.92
2019-04-06T06:30:21.507Z,10.96
2019-04-06T06:30:52.745Z,10.95
2019-04-06T06:31:27.291Z,10.92
2019-04-06T06:31:58.561Z,10.94
2019-04-06T06:32:31.100Z,11.02
2019-04-06T06:33:02.892Z,11.09
2019-04-06T06:33:34.154Z,11.16
2019-04-06T06:34:05.419Z,11.18
2019-04-06T06:34:36.668Z,11.18
2019-04-06T06:35:08.018Z,11.22
2019-04-06T06:35:39.303Z,11.24
2019-04-06T06:36:10.718Z,11.23
2019-04-06T06:36:42.192Z,11.17
2019-04-06T06:37:13.534Z,11.13
2019-04-06T06:37:44.844Z,11.12
2019-04-06T06:38:16.265Z,11.11
2019-04-06T06:38:47.476Z,11.05
2019-04-06T06:39:18.852Z,11.01
2019-04-06T06:39:51.743Z,10.96
2019-04-06T06:40:23.253Z,10.99
2019-04-06T06:40:57.700Z,11.02
2019-04-06T06:41:28.904Z,10.96
2019-04-06T06:42:00.139Z,11.05
2019-04-06T06:42:31.377Z,11.12
2019-04-06T06:43:02.643Z,11.09
2019-04-06T06:43:33.865Z,11.08
2019-04-06T06:44:05.101Z,11.08
2019-04-06T06:44:36.310Z,11.10
2019-04-06T06:45:07.673Z,11.17
2019-04-06T06:45:39.077Z,11.22
2019-04-06T06:46:10.320Z,11.26
2019-04-06T06:46:41.553Z,11.23
2019-04-06T06:47:12.812Z,11.26
2019-04-06T06:47:44.302Z,11.31
2019-04-06T06:48:15.493Z,11.37
2019-04-06T06:48:46.737Z,11.37
2019-04-06T06:49:19.398Z,11.40
2019-04-06T06:49:50.722Z,11.40
2019-04-06T06:50:22.201Z,11.41
2019-04-06T06:50:53.479Z,11.42
2019-04-06T06:51:24.731Z,11.45
2019-04-06T06:51:56.043Z,11.52
2019-04-06T06:52:27.282Z,11.52
2019-04-06T06:52:58.586Z,11.52
2019-04-06T06:53:29.972Z,11.51
2019-04-06T06:54:01.310Z,11.52
2019-04-06T06:54:32.533Z,11.55
2019-04-06T06:55:03.881Z,11.54
2019-04-06T06:55:35.063Z,11.58
2019-04-06T06:56:06.302Z,11.61
2019-04-06T06:56:37.670Z,11.62
2019-04-06T06:57:09.991Z,11.60
2019-04-06T06:57:41.304Z,11.58
2019-04-06T06:58:12.553Z,11.61
2019-04-06T06:58:43.764Z,11.57
2019-04-06T06:59:15.055Z,11.56
2019-04-06T06:59:46.406Z,11.57